createdAt,value
2022-08-04T00:00:02.049Z,21.24
2022-08-04T00:01:02.217Z,21.27
2022-08-04T00:02:02.127Z,21.14
2022-08-04T00:03:02.141Z,21.21
2022-08-04T00:04:01.987Z,21.20
2022-08-04T00:05:02.192Z,21.02
2022-08-04T00:06:01.989Z,21.01
2022-08-04T00:07:01.987Z,20.90
2022-08-04T00:08:01.968Z,20.83
2022-08-04T00:09:01.929Z,20.74
2022-08-04T00:10:01.869Z,20.72
2022-08-04T00:11:01.911Z,20.71
2022-08-04T00:12:01.865Z,20.65
2022-08-04T00:13:01.849Z,20.59
2022-08-04T00:14:03.108Z,20.51
2022-08-04T00:15:01.836Z,20.41
2022-08-04T00:16:01.861Z,20.43
2022-08-04T00:17:01.809Z,20.33
2022-08-04T00:18:01.797Z,20.28
2022-08-04T00:19:01.764Z,20.28
2022-08-04T00:20:02.126Z,20.20
2022-08-04T00:21:01.777Z,20.18
2022-08-04T00:22:01.825Z,20.09
2022-08-04T00:23:01.800Z,20.10
2022-08-04T00:24:11.358Z,20.09
2022-08-04T00:25:02.748Z,20.15
2022-08-04T00:26:01.774Z,20.10
2022-08-04T00:27:01.830Z,20.05
2022-08-04T00:28:01.788Z,20.08
2022-08-04T00:29:01.788Z,20.03
2022-08-04T00:30:01.783Z,20.05
2022-08-04T00:31:01.759Z,19.98
2022-08-04T00:32:01.768Z,19.95
2022-08-04T00:33:02.776Z,19.86
2022-08-04T00:34:02.755Z,19.72
2022-08-04T00:35:01.824Z,19.68
2022-08-04T00:36:01.747Z,19.60
2022-08-04T00:37:01.704Z,19.51
2022-08-04T00:38:01.783Z,19.48
2022-08-04T00:39:01.731Z,19.60
2022-08-04T00:40:01.706Z,19.73
2022-08-04T00:41:01.768Z,19.66
2022-08-04T00:42:01.710Z,19.72
2022-08-04T00:43:01.736Z,19.66
2022-08-04T00:44:01.733Z,19.61
2022-08-04T00:45:02.664Z,19.73
2022-08-04T00:46:17.599Z,19.73
2022-08-04T00:47:02.616Z,19.79
2022-08-04T00:48:01.653Z,19.76
2022-08-04T00:49:01.791Z,19.75
2022-08-04T00:50:01.643Z,19.84
2022-08-04T00:51:01.621Z,19.90
2022-08-04T00:52:32.599Z,19.90
2022-08-04T00:53:02.553Z,19.91
2022-08-04T00:54:01.600Z,19.75
2022-08-04T00:55:03.307Z,19.75
2022-08-04T00:56:03.647Z,19.78
2022-08-04T00:57:01.649Z,19.78
2022-08-04T00:58:01.610Z,19.79
2022-08-04T00:59:01.575Z,19.73
2022-08-04T01:00:01.653Z,19.79
2022-08-04T01:01:01.652Z,19.73
2022-08-04T01:02:01.587Z,19.72
2022-08-04T01:03:01.527Z,19.65
2022-08-04T01:04:01.601Z,19.50
2022-08-04T01:05:01.513Z,19.39
2022-08-04T01:06:01.623Z,19.29
2022-08-04T01:07:01.484Z,19.02
2022-08-04T01:08:01.621Z,18.91
2022-08-04T01:09:02.405Z,19.13
2022-08-04T01:10:01.464Z,19.05
2022-08-04T01:11:01.495Z,19.15
2022-08-04T01:12:01.437Z,19.28
2022-08-04T01:13:01.391Z,19.29
2022-08-04T01:14:01.397Z,19.29
2022-08-04T01:15:01.365Z,19.36
2022-08-04T01:16:01.350Z,19.38
2022-08-04T01:17:01.454Z,19.35
2022-08-04T01:18:01.373Z,19.32
2022-08-04T01:19:01.396Z,19.36
2022-08-04T01:20:01.354Z,19.40
2022-08-04T01:21:01.359Z,19.35
2022-08-04T01:22:01.416Z,19.31
2022-08-04T01:23:01.329Z,19.36
2022-08-04T01:24:01.369Z,19.50
2022-08-04T01:25:02.135Z,19.54
2022-08-04T01:26:01.272Z,19.58
2022-08-04T01:27:01.475Z,19.66
2022-08-04T01:28:02.436Z,19.69
2022-08-04T01:29:01.427Z,19.63
2022-08-04T01:30:01.313Z,19.72
2022-08-04T01:31:01.334Z,19.54
2022-08-04T01:32:01.423Z,19.43
2022-08-04T01:33:01.343Z,19.33
2022-08-04T01:34:04.278Z,19.25
2022-08-04T01:35:02.201Z,19.29
2022-08-04T01:36:01.292Z,19.29
2022-08-04T01:37:01.255Z,19.24
2022-08-04T01:38:01.285Z,19.35
2022-08-04T01:39:01.287Z,19.31
2022-08-04T01:40:01.253Z,19.35
2022-08-04T01:41:01.229Z,19.29
2022-08-04T01:42:01.232Z,19.15
2022-08-04T01:43:01.218Z,19.10
2022-08-04T01:44:01.346Z,19.14
2022-08-04T01:45:01.213Z,19.02
2022-08-04T01:46:01.257Z,18.92
2022-08-04T01:47:02.217Z,18.87
2022-08-04T01:48:01.272Z,18.87
2022-08-04T01:49:01.205Z,18.98
2022-08-04T01:50:01.115Z,18.86
2022-08-04T01:51:01.086Z,18.95
2022-08-04T01:52:01.083Z,19.01
2022-08-04T01:53:01.079Z,19.10
2022-08-04T01:54:01.155Z,19.02
2022-08-04T01:55:01.154Z,19.17
2022-08-04T01:56:01.107Z,19.14
2022-08-04T01:57:01.099Z,19.14
2022-08-04T01:58:02.075Z,19.13
2022-08-04T01:59:01.069Z,19.08
2022-08-04T02:00:01.119Z,19.13
2022-08-04T02:01:01.179Z,19.18
2022-08-04T02:02:01.175Z,19.17
2022-08-04T02:03:01.138Z,19.21
2022-08-04T02:04:21.505Z,19.25
2022-08-04T02:05:02.263Z,19.32
2022-08-04T02:06:02.620Z,19.38
2022-08-04T02:07:01.060Z,19.46
2022-08-04T02:08:01.074Z,19.48
2022-08-04T02:09:01.128Z,19.48
2022-08-04T02:10:01.019Z,19.43
2022-08-04T02:11:01.146Z,19.54
2022-08-04T02:12:01.039Z,19.48
2022-08-04T02:13:02.067Z,19.46
2022-08-04T02:14:00.998Z,19.42
2022-08-04T02:15:01.116Z,19.35
2022-08-04T02:16:01.040Z,19.35
2022-08-04T02:17:01.007Z,19.25
2022-08-04T02:18:01.013Z,19.13
2022-08-04T02:19:00.954Z,19.06
2022-08-04T02:20:00.943Z,18.98
2022-08-04T02:21:00.944Z,18.99
2022-08-04T02:22:01.030Z,18.99
2022-08-04T02:23:00.940Z,19.11
2022-08-04T02:24:00.862Z,18.95
2022-08-04T02:25:00.896Z,19.01
2022-08-04T02:26:00.860Z,18.95
2022-08-04T02:27:00.872Z,18.91
2022-08-04T02:28:01.188Z,18.83
2022-08-04T02:29:02.386Z,18.84
2022-08-04T02:30:00.961Z,18.97
2022-08-04T02:31:00.855Z,18.95
2022-08-04T02:32:00.980Z,18.86
2022-08-04T02:33:00.863Z,18.95
2022-08-04T02:34:00.931Z,18.83
2022-08-04T02:35:00.879Z,18.77
2022-08-04T02:36:02.327Z,18.82
2022-08-04T02:37:00.844Z,18.64
2022-08-04T02:38:00.882Z,18.59
2022-08-04T02:39:00.872Z,18.59
2022-08-04T02:40:00.814Z,18.59
2022-08-04T02:41:00.794Z,18.47
2022-08-04T02:42:00.841Z,18.54
2022-08-04T02:43:00.889Z,18.52
2022-08-04T02:44:00.804Z,18.43
2022-08-04T02:45:00.848Z,18.33
2022-08-04T02:46:00.917Z,18.36
2022-08-04T02:47:00.866Z,18.29
2022-08-04T02:48:29.062Z,18.28
2022-08-04T02:49:02.767Z,18.34
2022-08-04T02:50:00.731Z,18.25
2022-08-04T02:51:00.807Z,18.21
2022-08-04T02:52:00.750Z,18.18
2022-08-04T02:53:00.795Z,18.09
2022-08-04T02:54:00.765Z,18.10
2022-08-04T02:55:00.780Z,18.13
2022-08-04T02:56:00.723Z,18.19
2022-08-04T02:57:00.827Z,18.17
2022-08-04T02:58:00.686Z,18.29
2022-08-04T02:59:00.846Z,18.25
2022-08-04T03:00:00.682Z,18.27
2022-08-04T03:01:00.794Z,18.33
2022-08-04T03:02:00.571Z,18.39
2022-08-04T03:03:00.587Z,18.43
2022-08-04T03:04:00.575Z,18.46
2022-08-04T03:05:00.637Z,18.37
2022-08-04T03:06:01.774Z,18.22
2022-08-04T03:07:00.573Z,18.18
2022-08-04T03:08:00.578Z,18.13
2022-08-04T03:09:00.600Z,17.88
2022-08-04T03:10:00.643Z,17.79
2022-08-04T03:11:00.567Z,17.76
2022-08-04T03:12:00.555Z,17.84
2022-08-04T03:13:00.536Z,17.74
2022-08-04T03:14:00.598Z,17.94
2022-08-04T03:15:00.595Z,17.84
2022-08-04T03:16:00.695Z,17.92
2022-08-04T03:17:00.578Z,18.00
2022-08-04T03:18:00.620Z,17.99
2022-08-04T03:19:00.554Z,17.97
2022-08-04T03:20:00.641Z,18.02
2022-08-04T03:21:00.570Z,18.09
2022-08-04T03:22:00.630Z,18.10
2022-08-04T03:23:13.061Z,18.12
2022-08-04T03:24:02.556Z,18.12
2022-08-04T03:25:00.535Z,18.15
2022-08-04T03:26:01.628Z,18.29
2022-08-04T03:27:00.482Z,18.22
2022-08-04T03:28:00.495Z,18.28
2022-08-04T03:29:00.497Z,18.27
2022-08-04T03:30:00.458Z,18.27
2022-08-04T03:31:00.483Z,18.33
2022-08-04T03:32:00.530Z,18.33
2022-08-04T03:33:00.448Z,18.29
2022-08-04T03:34:00.479Z,18.37
2022-08-04T03:35:01.399Z,18.24
2022-08-04T03:36:00.470Z,18.19
2022-08-04T03:37:00.450Z,18.15
2022-08-04T03:38:00.452Z,18.10
2022-08-04T03:39:00.554Z,18.10
2022-08-04T03:40:00.409Z,18.07
2022-08-04T03:41:01.402Z,17.94
2022-08-04T03:42:04.093Z,18.04
2022-08-04T03:43:00.476Z,18.03
2022-08-04T03:44:00.390Z,18.03
2022-08-04T03:45:00.485Z,18.06
2022-08-04T03:46:00.371Z,18.04
2022-08-04T03:47:00.389Z,18.00
2022-08-04T03:48:00.419Z,17.95
2022-08-04T03:49:00.336Z,17.87
2022-08-04T03:50:00.356Z,17.76
2022-08-04T03:51:00.311Z,17.78
2022-08-04T03:52:00.333Z,17.71
2022-08-04T03:53:00.341Z,17.63
2022-08-04T03:54:00.355Z,17.44
2022-08-04T03:55:00.306Z,17.29
2022-08-04T03:56:00.301Z,17.41
2022-08-04T03:57:00.304Z,17.35
2022-08-04T03:58:00.287Z,17.54
2022-08-04T03:59:00.343Z,17.62
2022-08-04T04:00:00.338Z,17.63
2022-08-04T04:01:00.278Z,17.63
2022-08-04T04:02:02.247Z,17.55
2022-08-04T04:03:01.271Z,17.66
2022-08-04T04:04:00.326Z,17.78
2022-08-04T04:05:01.043Z,17.73
2022-08-04T04:06:02.306Z,17.87
2022-08-04T04:07:00.138Z,17.84
2022-08-04T04:08:01.878Z,17.99
2022-08-04T04:09:01.129Z,17.99
2022-08-04T04:10:05.771Z,18.07
2022-08-04T04:11:01.094Z,18.10
2022-08-04T04:12:00.104Z,18.04
2022-08-04T04:13:00.095Z,18.09
2022-08-04T04:14:00.073Z,18.04
2022-08-04T04:15:00.293Z,17.94
2022-08-04T04:16:00.077Z,18.02
2022-08-04T04:17:00.058Z,17.92
2022-08-04T04:18:00.068Z,18.04
2022-08-04T04:19:00.182Z,18.03
2022-08-04T04:20:00.133Z,18.10
2022-08-04T04:21:00.197Z,18.09
2022-08-04T04:22:00.154Z,18.10
2022-08-04T04:23:00.233Z,18.18
2022-08-04T04:24:00.117Z,18.25
2022-08-04T04:25:00.175Z,18.18
2022-08-04T04:26:00.116Z,18.25
2022-08-04T04:27:00.174Z,18.28
2022-08-04T04:28:45.692Z,18.22
2022-08-04T04:29:03.397Z,18.28
2022-08-04T04:30:01.065Z,18.42
2022-08-04T04:31:00.062Z,18.36
2022-08-04T04:32:00.074Z,18.42
2022-08-04T04:33:00.015Z,18.40
2022-08-04T04:34:00.104Z,18.34
2022-08-04T04:35:00.069Z,18.40
2022-08-04T04:36:00.032Z,18.28
2022-08-04T04:37:00.049Z,18.22
2022-08-04T04:38:00.001Z,18.31
2022-08-04T04:39:00.063Z,18.27
2022-08-04T04:39:59.994Z,18.28
2022-08-04T04:40:59.993Z,18.12
2022-08-04T04:41:59.960Z,18.06
2022-08-04T04:42:59.987Z,18.02
2022-08-04T04:44:00.016Z,17.97
2022-08-04T04:44:59.936Z,17.87
2022-08-04T04:46:00.934Z,17.88
2022-08-04T04:46:59.944Z,17.88
2022-08-04T04:48:08.441Z,17.78
2022-08-04T04:49:00.972Z,17.71
2022-08-04T04:50:00.012Z,17.79
2022-08-04T04:50:59.905Z,17.76
2022-08-04T04:52:00.016Z,17.78
2022-08-04T04:52:59.901Z,17.87
2022-08-04T04:54:00.690Z,17.94
2022-08-04T04:54:59.915Z,17.92
2022-08-04T04:55:59.861Z,17.94
2022-08-04T04:56:59.900Z,17.95
2022-08-04T04:57:59.853Z,18.07
2022-08-04T04:58:59.909Z,18.10
2022-08-04T04:59:59.847Z,18.09
2022-08-04T05:00:59.848Z,18.13
2022-08-04T05:01:59.891Z,18.28
2022-08-04T05:03:01.657Z,18.25
2022-08-04T05:04:00.892Z,18.34
2022-08-04T05:05:00.826Z,18.33
2022-08-04T05:06:00.793Z,18.44
2022-08-04T05:06:59.846Z,18.58
2022-08-04T05:07:59.792Z,18.61
2022-08-04T05:09:00.713Z,18.64
2022-08-04T05:09:59.810Z,18.82
2022-08-04T05:10:59.869Z,18.91
2022-08-04T05:11:59.694Z,19.01
2022-08-04T05:14:37.120Z,19.14
2022-08-04T05:14:38.963Z,18.97
2022-08-04T05:15:00.990Z,19.17
2022-08-04T05:15:59.655Z,19.20
2022-08-04T05:16:59.720Z,19.32
2022-08-04T05:17:59.736Z,19.36
2022-08-04T05:18:59.623Z,19.36
2022-08-04T05:19:59.724Z,19.32
2022-08-04T05:20:59.822Z,19.43
2022-08-04T05:21:59.723Z,19.47
2022-08-04T05:22:59.652Z,19.54
2022-08-04T05:23:59.703Z,19.54
2022-08-04T05:24:59.698Z,19.47
2022-08-04T05:26:00.248Z,19.43
2022-08-04T05:26:59.669Z,19.47
2022-08-04T05:27:59.654Z,19.58
2022-08-04T05:28:59.659Z,19.68
2022-08-04T05:29:59.689Z,19.58
2022-08-04T05:30:59.650Z,19.70
2022-08-04T05:31:59.815Z,19.72
2022-08-04T05:33:00.101Z,19.79
2022-08-04T05:33:59.716Z,19.90
2022-08-04T05:34:59.631Z,19.97
2022-08-04T05:36:17.056Z,19.97
2022-08-04T05:37:00.564Z,20.08
2022-08-04T05:38:01.626Z,20.15
2022-08-04T05:38:59.659Z,20.31
2022-08-04T05:39:59.619Z,20.49
2022-08-04T05:40:59.623Z,20.39
2022-08-04T05:42:04.477Z,20.56
2022-08-04T05:43:00.567Z,20.66
2022-08-04T05:43:59.671Z,20.68
2022-08-04T05:44:59.575Z,20.74
2022-08-04T05:45:59.563Z,20.81
2022-08-04T05:46:59.518Z,20.87
2022-08-04T05:47:59.561Z,20.86
2022-08-04T05:48:59.538Z,20.91
2022-08-04T05:50:01.738Z,20.93
2022-08-04T05:51:01.229Z,21.02
2022-08-04T05:52:00.474Z,21.09
2022-08-04T05:52:59.895Z,21.08
2022-08-04T05:53:59.548Z,21.11
2022-08-04T05:54:59.559Z,21.11
2022-08-04T05:56:00.059Z,21.13
2022-08-04T05:57:00.503Z,21.17
2022-08-04T05:57:59.431Z,21.24
2022-08-04T05:58:59.460Z,21.26
2022-08-04T05:59:59.432Z,21.26
2022-08-04T06:00:59.445Z,21.06
2022-08-04T06:01:59.468Z,21.04
2022-08-04T06:02:59.425Z,20.95
2022-08-04T06:03:59.367Z,20.90
2022-08-04T06:04:59.424Z,21.02
2022-08-04T06:05:59.342Z,21.08
2022-08-04T06:06:59.386Z,21.21
2022-08-04T06:08:12.259Z,21.21
2022-08-04T06:09:00.348Z,21.23
2022-08-04T06:09:59.363Z,21.24
2022-08-04T06:10:59.228Z,21.34
2022-08-04T06:12:03.631Z,21.44
2022-08-04T06:12:59.291Z,21.39
2022-08-04T06:13:59.226Z,21.53
2022-08-04T06:14:59.694Z,21.57
2022-08-04T06:15:59.499Z,21.71
2022-08-04T06:16:59.218Z,21.60
2022-08-04T06:18:35.648Z,21.83
2022-08-04T06:20:02.033Z,21.76
2022-08-04T06:20:19.956Z,21.99
2022-08-04T06:21:01.571Z,22.02
2022-08-04T06:21:59.194Z,22.09
2022-08-04T06:22:59.266Z,21.97
2022-08-04T06:24:04.292Z,21.92
2022-08-04T06:25:01.322Z,22.04
2022-08-04T06:25:59.264Z,21.79
2022-08-04T06:26:59.328Z,21.60
2022-08-04T06:27:59.230Z,21.63
2022-08-04T06:28:59.222Z,21.56
2022-08-04T06:29:59.218Z,21.54
2022-08-04T06:30:59.219Z,21.42
2022-08-04T06:32:30.375Z,21.44
2022-08-04T06:33:04.314Z,21.59
2022-08-04T06:33:59.302Z,21.66
2022-08-04T06:34:59.285Z,21.67
2022-08-04T06:35:59.174Z,21.78
2022-08-04T06:36:59.394Z,21.74
2022-08-04T06:38:01.234Z,21.94
2022-08-04T06:39:00.298Z,22.13
2022-08-04T06:39:59.162Z,22.02
2022-08-04T06:40:59.296Z,21.92
2022-08-04T06:42:17.537Z,21.95
2022-08-04T06:43:00.144Z,22.06
2022-08-04T06:43:59.101Z,22.16
2022-08-04T06:44:59.172Z,22.39
2022-08-04T06:45:59.203Z,22.35
2022-08-04T06:46:59.120Z,22.50
2022-08-04T06:47:59.084Z,22.69
2022-08-04T06:48:59.109Z,22.71
2022-08-04T06:51:25.743Z,22.69
2022-08-04T06:51:30.524Z,22.59
2022-08-04T06:51:59.994Z,22.71
2022-08-04T06:52:59.122Z,22.56
2022-08-04T06:53:59.148Z,22.43
2022-08-04T06:54:59.095Z,22.44
2022-08-04T06:55:59.122Z,22.52
2022-08-04T06:56:59.080Z,22.50
2022-08-04T06:58:02.864Z,22.77
2022-08-04T06:59:00.229Z,22.82
2022-08-04T06:59:58.953Z,22.71
2022-08-04T07:00:58.992Z,22.74
2022-08-04T07:01:58.963Z,23.01
2022-08-04T07:02:58.943Z,23.09
2022-08-04T07:03:58.913Z,23.24
2022-08-04T07:04:59.029Z,23.35
2022-08-04T07:05:59.025Z,23.60
2022-08-04T07:06:59.912Z,23.50
2022-08-04T07:07:58.997Z,23.55
2022-08-04T07:08:58.908Z,23.65
2022-08-04T07:09:58.955Z,23.68
2022-08-04T07:10:58.890Z,23.72
2022-08-04T07:11:58.927Z,23.80
2022-08-04T07:12:59.932Z,23.90
2022-08-04T07:13:59.254Z,24.08
2022-08-04T07:14:59.016Z,24.00
2022-08-04T07:15:59.024Z,24.20
2022-08-04T07:16:58.904Z,24.35
2022-08-04T07:18:00.233Z,24.53
2022-08-04T07:18:58.967Z,24.50
2022-08-04T07:20:01.042Z,24.42
2022-08-04T07:20:58.950Z,24.34
2022-08-04T07:22:16.128Z,24.26
2022-08-04T07:22:59.900Z,24.01
2022-08-04T07:23:58.844Z,23.97
2022-08-04T07:24:59.023Z,24.07
2022-08-04T07:26:12.428Z,24.10
2022-08-04T07:26:59.815Z,24.05
2022-08-04T07:27:58.850Z,24.00
2022-08-04T07:28:58.800Z,24.07
2022-08-04T07:29:58.833Z,24.05
2022-08-04T07:30:58.878Z,24.08
2022-08-04T07:31:58.759Z,24.14
2022-08-04T07:32:58.778Z,24.24
2022-08-04T07:34:16.901Z,24.38
2022-08-04T07:34:59.652Z,24.35
2022-08-04T07:36:09.323Z,24.54
2022-08-04T07:36:59.815Z,24.67
2022-08-04T07:37:58.729Z,24.77
2022-08-04T07:38:58.750Z,24.79
2022-08-04T07:39:58.789Z,24.92
2022-08-04T07:40:58.598Z,25.05
2022-08-04T07:41:58.726Z,25.24
2022-08-04T07:42:58.564Z,25.34
2022-08-04T07:43:58.570Z,25.54
2022-08-04T07:44:58.716Z,25.68
2022-08-04T07:45:58.589Z,25.74
2022-08-04T07:46:58.586Z,25.90
2022-08-04T07:48:05.386Z,26.09
2022-08-04T07:48:59.566Z,26.17
2022-08-04T07:49:58.556Z,25.87
2022-08-04T07:50:58.697Z,25.83
2022-08-04T07:51:58.628Z,25.71
2022-08-04T07:53:15.625Z,25.68
2022-08-04T07:54:00.617Z,25.69
2022-08-04T07:54:58.617Z,25.69
2022-08-04T07:55:58.629Z,25.97
2022-08-04T07:56:58.643Z,26.09
2022-08-04T07:57:58.637Z,26.32
2022-08-04T07:58:58.656Z,26.43
2022-08-04T07:59:58.581Z,26.44
2022-08-04T08:00:58.555Z,26.69
2022-08-04T08:01:58.559Z,26.86
2022-08-04T08:02:58.635Z,26.99
2022-08-04T08:03:58.658Z,27.10
2022-08-04T08:04:58.582Z,27.13
2022-08-04T08:06:17.581Z,27.24
2022-08-04T08:06:59.497Z,27.46
2022-08-04T08:07:58.525Z,27.58
2022-08-04T08:08:58.650Z,27.54
2022-08-04T08:09:58.504Z,27.67
2022-08-04T08:10:58.502Z,27.70
2022-08-04T08:12:38.656Z,27.71
2022-08-04T08:12:59.377Z,27.73
2022-08-04T08:13:58.435Z,27.47
2022-08-04T08:14:58.516Z,27.54
2022-08-04T08:15:58.437Z,27.64
2022-08-04T08:16:58.450Z,27.48
2022-08-04T08:18:00.758Z,27.50
2022-08-04T08:18:58.437Z,27.71
2022-08-04T08:19:58.404Z,27.80
2022-08-04T08:20:58.282Z,27.88
2022-08-04T08:21:59.312Z,27.99
2022-08-04T08:22:58.340Z,27.91
2022-08-04T08:23:58.284Z,27.99
2022-08-04T08:24:58.525Z,28.22
2022-08-04T08:25:58.437Z,28.26
2022-08-04T08:26:58.366Z,28.29
2022-08-04T08:27:58.460Z,28.35
2022-08-04T08:28:58.369Z,28.43
2022-08-04T08:29:58.410Z,28.65
2022-08-04T08:30:59.031Z,28.85
2022-08-04T08:32:02.653Z,28.82
2022-08-04T08:33:00.300Z,28.91
2022-08-04T08:33:58.447Z,29.06
2022-08-04T08:34:58.323Z,29.15
2022-08-04T08:35:58.347Z,29.33
2022-08-04T08:36:58.338Z,29.52
2022-08-04T08:37:58.335Z,29.50
2022-08-04T08:38:58.361Z,29.55
2022-08-04T08:39:58.300Z,29.55
2022-08-04T08:40:58.342Z,29.66
2022-08-04T08:41:58.274Z,29.74
2022-08-04T08:42:58.255Z,29.75
2022-08-04T08:44:06.347Z,29.87
2022-08-04T08:44:59.283Z,29.92
2022-08-04T08:45:58.271Z,30.00
2022-08-04T08:46:58.285Z,30.12
2022-08-04T08:48:04.782Z,30.15
2022-08-04T08:48:59.329Z,30.07
2022-08-04T08:50:00.764Z,30.14
2022-08-04T08:50:58.271Z,30.09
2022-08-04T08:51:58.244Z,30.07
2022-08-04T08:53:02.603Z,30.21
2022-08-04T08:53:58.198Z,30.21
2022-08-04T08:54:58.304Z,30.19
2022-08-04T08:55:58.170Z,30.47
2022-08-04T08:56:58.292Z,30.53
2022-08-04T08:57:59.981Z,30.64
2022-08-04T08:58:58.145Z,30.68
2022-08-04T08:59:58.107Z,30.71
2022-08-04T09:00:58.099Z,30.90
2022-08-04T09:01:58.134Z,30.94
2022-08-04T09:03:03.839Z,30.96
2022-08-04T09:03:59.088Z,30.90
2022-08-04T09:04:58.049Z,31.08
2022-08-04T09:05:58.158Z,31.04
2022-08-04T09:06:58.105Z,31.11
2022-08-04T09:07:58.180Z,31.20
2022-08-04T09:08:58.088Z,31.23
2022-08-04T09:09:58.102Z,31.27
2022-08-04T09:10:58.138Z,31.36
2022-08-04T09:11:58.172Z,31.18
2022-08-04T09:12:58.147Z,31.11
2022-08-04T09:13:58.127Z,30.98
2022-08-04T09:14:58.060Z,30.86
2022-08-04T09:15:58.152Z,30.94
2022-08-04T09:16:58.091Z,31.18
2022-08-04T09:17:58.133Z,31.26
2022-08-04T09:18:58.047Z,31.42
2022-08-04T09:19:58.038Z,31.65
2022-08-04T09:20:58.009Z,31.57
2022-08-04T09:21:58.008Z,31.64
2022-08-04T09:22:58.114Z,31.76
2022-08-04T09:23:58.013Z,31.84
2022-08-04T09:24:57.949Z,31.91
2022-08-04T09:25:57.952Z,31.76
2022-08-04T09:27:00.148Z,31.54
2022-08-04T09:27:59.845Z,31.50
2022-08-04T09:28:57.861Z,31.50
2022-08-04T09:29:57.883Z,31.24
2022-08-04T09:30:57.964Z,31.15
2022-08-04T09:32:06.849Z,31.21
2022-08-04T09:32:58.952Z,31.35
2022-08-04T09:33:59.266Z,31.42
2022-08-04T09:35:03.701Z,31.31
2022-08-04T09:35:58.867Z,31.43
2022-08-04T09:36:57.871Z,31.38
2022-08-04T09:37:57.899Z,31.45
2022-08-04T09:38:58.082Z,31.36
2022-08-04T09:39:57.871Z,31.24
2022-08-04T09:40:58.734Z,31.42
2022-08-04T09:41:57.839Z,31.55
2022-08-04T09:42:57.814Z,31.67
2022-08-04T09:44:43.163Z,31.96
2022-08-04T09:45:05.783Z,31.92
2022-08-04T09:45:59.830Z,32.10
2022-08-04T09:46:59.737Z,32.14
2022-08-04T09:47:57.853Z,32.36
2022-08-04T09:48:57.901Z,32.47
2022-08-04T09:49:57.831Z,32.48
2022-08-04T09:50:58.791Z,32.54
2022-08-04T09:51:59.594Z,32.80
2022-08-04T09:52:58.768Z,32.95
2022-08-04T09:53:57.831Z,32.73
2022-08-04T09:54:57.850Z,32.61
2022-08-04T09:56:01.182Z,32.59
2022-08-04T09:56:59.845Z,32.59
2022-08-04T09:57:57.858Z,32.51
2022-08-04T09:58:57.754Z,32.54
2022-08-04T09:59:57.914Z,32.59
2022-08-04T10:00:57.760Z,32.70
2022-08-04T10:01:58.975Z,32.74
2022-08-04T10:02:57.799Z,32.73
2022-08-04T10:03:57.840Z,32.85
2022-08-04T10:04:57.824Z,32.92
2022-08-04T10:05:57.703Z,33.15
2022-08-04T10:06:57.798Z,32.98
2022-08-04T10:07:59.523Z,32.95
2022-08-04T10:08:58.706Z,32.79
2022-08-04T10:09:57.718Z,32.86
2022-08-04T10:10:57.654Z,33.03
2022-08-04T10:11:57.554Z,33.04
2022-08-04T10:12:57.558Z,33.23
2022-08-04T10:13:57.598Z,33.15
2022-08-04T10:14:57.591Z,33.33
2022-08-04T10:15:57.640Z,33.57
2022-08-04T10:16:57.548Z,33.70
2022-08-04T10:17:57.672Z,33.85
2022-08-04T10:18:57.717Z,33.85
2022-08-04T10:19:58.513Z,33.73
2022-08-04T10:21:02.862Z,33.83
2022-08-04T10:22:29.794Z,33.80
2022-08-04T10:23:11.072Z,33.71
2022-08-04T10:24:00.124Z,33.58
2022-08-04T10:24:57.669Z,33.65
2022-08-04T10:26:07.667Z,33.73
2022-08-04T10:26:59.524Z,33.89
2022-08-04T10:27:57.663Z,33.97
2022-08-04T10:28:57.595Z,33.98
2022-08-04T10:29:57.568Z,33.80
2022-08-04T10:30:57.595Z,33.82
2022-08-04T10:31:57.872Z,33.85
2022-08-04T10:32:57.566Z,33.98
2022-08-04T10:33:57.494Z,33.95
2022-08-04T10:34:57.514Z,33.97
2022-08-04T10:35:57.534Z,33.98
2022-08-04T10:36:57.622Z,34.13
2022-08-04T10:38:01.446Z,33.98
2022-08-04T10:38:57.492Z,34.07
2022-08-04T10:39:57.521Z,34.04
2022-08-04T10:40:57.438Z,34.01
2022-08-04T10:41:59.753Z,34.09
2022-08-04T10:42:57.518Z,34.08
2022-08-04T10:43:57.397Z,34.13
2022-08-04T10:44:58.478Z,34.13
2022-08-04T10:45:58.228Z,34.27
2022-08-04T10:46:57.452Z,34.31
2022-08-04T10:47:57.579Z,34.16
2022-08-04T10:48:57.421Z,34.22
2022-08-04T10:49:57.515Z,34.23
2022-08-04T10:50:58.323Z,34.26
2022-08-04T10:51:59.613Z,34.38
2022-08-04T10:52:57.499Z,34.42
2022-08-04T10:53:57.385Z,34.60
2022-08-04T10:54:57.399Z,34.70
2022-08-04T10:56:06.921Z,34.80
2022-08-04T10:56:58.416Z,34.84
2022-08-04T10:57:57.348Z,34.77
2022-08-04T10:58:57.397Z,34.56
2022-08-04T10:59:59.071Z,34.50
2022-08-04T11:00:58.354Z,34.60
2022-08-04T11:02:02.659Z,34.72
2022-08-04T11:02:58.258Z,34.70
2022-08-04T11:03:57.294Z,34.58
2022-08-04T11:04:57.293Z,34.80
2022-08-04T11:05:57.229Z,34.91
2022-08-04T11:06:57.249Z,35.08
2022-08-04T11:07:57.139Z,35.23
2022-08-04T11:08:57.207Z,35.28
2022-08-04T11:09:57.217Z,35.42
2022-08-04T11:10:57.114Z,35.39
2022-08-04T11:12:01.300Z,35.42
2022-08-04T11:12:59.559Z,35.40
2022-08-04T11:13:57.340Z,35.47
2022-08-04T11:14:57.353Z,35.50
2022-08-04T11:15:57.264Z,35.54
2022-08-04T11:16:57.234Z,35.48
2022-08-04T11:17:57.237Z,35.69
2022-08-04T11:18:57.233Z,35.72
2022-08-04T11:20:07.676Z,35.77
2022-08-04T11:20:59.148Z,35.69
2022-08-04T11:21:57.110Z,35.72
2022-08-04T11:22:57.281Z,35.69
2022-08-04T11:23:57.200Z,35.79
2022-08-04T11:24:57.275Z,35.74
2022-08-04T11:25:57.225Z,35.93
2022-08-04T11:26:57.244Z,36.06
2022-08-04T11:27:57.182Z,36.14
2022-08-04T11:29:03.704Z,36.04
2022-08-04T11:29:59.234Z,36.17
2022-08-04T11:30:57.165Z,36.07
2022-08-04T11:31:57.173Z,36.17
2022-08-04T11:32:57.160Z,36.30
2022-08-04T11:33:57.220Z,36.07
2022-08-04T11:34:57.330Z,36.07
2022-08-04T11:35:57.220Z,36.00
2022-08-04T11:36:57.146Z,36.01
2022-08-04T11:37:57.025Z,35.77
2022-08-04T11:38:57.090Z,35.86
2022-08-04T11:39:57.018Z,36.04
2022-08-04T11:41:02.679Z,36.15
2022-08-04T11:41:58.011Z,36.21
2022-08-04T11:42:57.077Z,36.39
2022-08-04T11:44:03.147Z,36.45
2022-08-04T11:44:57.979Z,36.61
2022-08-04T11:45:57.052Z,36.73
2022-08-04T11:46:56.989Z,36.64
2022-08-04T11:47:56.955Z,36.67
2022-08-04T11:48:56.925Z,36.73
2022-08-04T11:49:58.233Z,36.79
2022-08-04T11:50:57.056Z,36.67
2022-08-04T11:51:57.056Z,36.72
2022-08-04T11:52:57.062Z,36.85
2022-08-04T11:53:57.090Z,36.99
2022-08-04T11:54:56.985Z,37.07
2022-08-04T11:56:06.819Z,37.02
2022-08-04T11:56:58.034Z,36.97
2022-08-04T11:57:56.999Z,36.99
2022-08-04T11:58:57.054Z,37.09
2022-08-04T11:59:56.993Z,37.16
2022-08-04T12:00:58.096Z,37.05
2022-08-04T12:01:57.082Z,37.16
2022-08-04T12:02:57.030Z,37.28
2022-08-04T12:03:59.741Z,37.38
2022-08-04T12:04:57.848Z,37.56
2022-08-04T12:05:56.841Z,37.68
2022-08-04T12:07:15.055Z,37.42
2022-08-04T12:07:58.903Z,37.21
2022-08-04T12:08:56.941Z,37.23
2022-08-04T12:09:56.885Z,37.13
2022-08-04T12:10:56.827Z,36.92
2022-08-04T12:11:56.985Z,36.73
2022-08-04T12:12:56.890Z,36.77
2022-08-04T12:14:00.583Z,36.95
2022-08-04T12:14:57.900Z,36.90
2022-08-04T12:15:56.844Z,36.92
2022-08-04T12:16:56.801Z,36.87
2022-08-04T12:17:56.823Z,36.86
2022-08-04T12:18:56.760Z,36.90
2022-08-04T12:20:04.630Z,36.99
2022-08-04T12:20:57.741Z,37.20
2022-08-04T12:21:57.044Z,37.21
2022-08-04T12:22:56.842Z,36.82
2022-08-04T12:24:00.705Z,37.05
2022-08-04T12:24:56.751Z,37.12
2022-08-04T12:25:56.718Z,37.36
2022-08-04T12:26:56.807Z,37.55
2022-08-04T12:27:56.940Z,37.56
2022-08-04T12:29:12.035Z,37.61
2022-08-04T12:30:58.759Z,37.67
2022-08-04T12:31:04.111Z,37.80
2022-08-04T12:31:57.664Z,37.92
2022-08-04T12:32:56.819Z,37.99
2022-08-04T12:34:05.095Z,37.98
2022-08-04T12:34:57.788Z,37.89
2022-08-04T12:35:58.082Z,37.77
2022-08-04T12:36:57.656Z,37.43
2022-08-04T12:37:56.889Z,37.21
2022-08-04T12:38:56.899Z,37.47
2022-08-04T12:40:27.385Z,37.67
2022-08-04T12:40:57.638Z,37.93
2022-08-04T12:41:56.750Z,38.05
2022-08-04T12:42:59.822Z,38.22
2022-08-04T12:43:56.825Z,38.34
2022-08-04T12:44:56.660Z,38.08
2022-08-04T12:45:56.687Z,37.71
2022-08-04T12:46:56.687Z,37.39
2022-08-04T12:47:57.743Z,36.98
2022-08-04T12:48:56.817Z,36.87
2022-08-04T12:50:01.477Z,36.75
2022-08-04T12:50:57.556Z,36.77
2022-08-04T12:52:07.917Z,36.51